sensor_id;sensor_type;location;lat;lon;timestamp;pressure;altitude;pressure_sealevel;temperature
19948;BMP180;10135;50.702;7.276;2023-04-25T05:00:35;98926.00;;;11.50
19948;BMP180;10135;50.702;7.276;2023-04-25T05:02:37;98928.00;;;11.50
19948;BMP180;10135;50.702;7.276;2023-04-25T05:04:37;98939.00;;;11.50
19948;BMP180;10135;50.702;7.276;2023-04-25T05:06:38;98935.00;;;11.50
19948;BMP180;10135;50.702;7.276;2023-04-25T05:08:38;98941.00;;;11.50
19948;BMP180;10135;50.702;7.276;2023-04-25T05:10:40;98939.00;;;11.50
19948;BMP180;10135;50.702;7.276;2023-04-25T05:12:40;98937.00;;;11.50
19948;BMP180;10135;50.702;7.276;2023-04-25T05:14:41;98933.00;;;11.50
19948;BMP180;10135;50.702;7.276;2023-04-25T05:16:43;98937.00;;;11.50
19948;BMP180;10135;50.702;7.276;2023-04-25T05:18:43;98942.00;;;11.50
19948;BMP180;10135;50.702;7.276;2023-04-25T05:20:44;98942.00;;;11.50
19948;BMP180;10135;50.702;7.276;2023-04-25T05:22:45;98938.00;;;11.50
19948;BMP180;10135;50.702;7.276;2023-04-25T05:24:46;98952.00;;;11.60
19948;BMP180;10135;50.702;7.276;2023-04-25T05:26:46;98955.00;;;11.60
19948;BMP180;10135;50.702;7.276;2023-04-25T05:28:47;98958.00;;;11.60
19948;BMP180;10135;50.702;7.276;2023-04-25T05:30:48;98952.00;;;11.60
19948;BMP180;10135;50.702;7.276;2023-04-25T05:32:49;98961.00;;;11.60
19948;BMP180;10135;50.702;7.276;2023-04-25T05:34:49;98958.00;;;11.70
19948;BMP180;10135;50.702;7.276;2023-04-25T05:36:50;98955.00;;;11.70
19948;BMP180;10135;50.702;7.276;2023-04-25T05:38:51;98964.00;;;11.70
19948;BMP180;10135;50.702;7.276;2023-04-25T05:40:51;98964.00;;;11.80
19948;BMP180;10135;50.702;7.276;2023-04-25T05:42:52;98962.00;;;11.80
19948;BMP180;10135;50.702;7.276;2023-04-25T05:44:52;98964.00;;;11.80
19948;BMP180;10135;50.702;7.276;2023-04-25T05:46:53;98962.00;;;11.90
19948;BMP180;10135;50.702;7.276;2023-04-25T05:48:54;98963.00;;;11.90
19948;BMP180;10135;50.702;7.276;2023-04-25T05:50:54;98955.00;;;12.00
19948;BMP180;10135;50.702;7.276;2023-04-25T05:52:55;98966.00;;;12.00
19948;BMP180;10135;50.702;7.276;2023-04-25T05:54:56;98969.00;;;12.10
19948;BMP180;10135;50.702;7.276;2023-04-25T05:56:57;98974.00;;;12.10
19948;BMP180;10135;50.702;7.276;2023-04-25T05:58:58;98978.00;;;12.20
19948;BMP180;10135;50.702;7.276;2023-04-25T06:00:58;98978.00;;;12.20
19948;BMP180;10135;50.702;7.276;2023-04-25T06:02:59;98979.00;;;12.30
19948;BMP180;10135;50.702;7.276;2023-04-25T06:05:00;98982.00;;;12.30
19948;BMP180;10135;50.702;7.276;2023-04-25T06:07:03;98976.00;;;12.30
19948;BMP180;10135;50.702;7.276;2023-04-25T06:09:04;98978.00;;;12.30
19948;BMP180;10135;50.702;7.276;2023-04-25T06:11:05;98981.00;;;12.30
19948;BMP180;10135;50.702;7.276;2023-04-25T06:13:05;98983.00;;;12.30
19948;BMP180;10135;50.702;7.276;2023-04-25T06:15:07;98983.00;;;12.30
19948;BMP180;10135;50.702;7.276;2023-04-25T06:17:08;98996.00;;;12.20
19948;BMP180;10135;50.702;7.276;2023-04-25T06:19:08;98995.00;;;12.30
19948;BMP180;10135;50.702;7.276;2023-04-25T06:21:09;98995.00;;;12.30
19948;BMP180;10135;50.702;7.276;2023-04-25T06:23:10;98995.00;;;12.30
19948;BMP180;10135;50.702;7.276;2023-04-25T06:25:10;98991.00;;;12.30
19948;BMP180;10135;50.702;7.276;2023-04-25T06:27:11;98999.00;;;12.30
19948;BMP180;10135;50.702;7.276;2023-04-25T06:29:11;98999.00;;;12.30
19948;BMP180;10135;50.702;7.276;2023-04-25T06:31:12;98995.00;;;12.30
19948;BMP180;10135;50.702;7.276;2023-04-25T06:33:13;99007.00;;;12.30
19948;BMP180;10135;50.702;7.276;2023-04-25T06:35:13;98999.00;;;12.30
19948;BMP180;10135;50.702;7.276;2023-04-25T06:37:14;99004.00;;;12.40
19948;BMP180;10135;50.702;7.276;2023-04-25T06:39:15;99004.00;;;12.40
19948;BMP180;10135;50.702;7.276;2023-04-25T06:41:15;99007.00;;;12.40
19948;BMP180;10135;50.702;7.276;2023-04-25T06:43:16;99008.00;;;12.40
19948;BMP180;10135;50.702;7.276;2023-04-25T06:45:17;99003.00;;;12.40
19948;BMP180;10135;50.702;7.276;2023-04-25T06:47:17;99009.00;;;12.40
19948;BMP180;10135;50.702;7.276;2023-04-25T06:49:18;99003.00;;;12.50
19948;BMP180;10135;50.702;7.276;2023-04-25T06:51:19;99010.00;;;12.60
19948;BMP180;10135;50.702;7.276;2023-04-25T06:53:19;99007.00;;;12.60
19948;BMP180;10135;50.702;7.276;2023-04-25T06:55:20;99012.00;;;12.70
19948;BMP180;10135;50.702;7.276;2023-04-25T06:57:20;99007.00;;;12.80
19948;BMP180;10135;50.702;7.276;2023-04-25T06:59:21;99018.00;;;12.80
19948;BMP180;10135;50.702;7.276;2023-04-25T07:01:22;99011.00;;;12.90
19948;BMP180;10135;50.702;7.276;2023-04-25T07:03:23;99016.00;;;13.00
19948;BMP180;10135;50.702;7.276;2023-04-25T07:05:24;99020.00;;;13.10
19948;BMP180;10135;50.702;7.276;2023-04-25T07:07:25;99025.00;;;13.10
19948;BMP180;10135;50.702;7.276;2023-04-25T07:09:26;99023.00;;;13.20
19948;BMP180;10135;50.702;7.276;2023-04-25T07:11:26;99025.00;;;13.20
19948;BMP180;10135;50.702;7.276;2023-04-25T07:13:27;99022.00;;;13.30
19948;BMP180;10135;50.702;7.276;2023-04-25T07:15:28;99022.00;;;13.40
19948;BMP180;10135;50.702;7.276;2023-04-25T07:17:28;99023.00;;;13.50
19948;BMP180;10135;50.702;7.276;2023-04-25T07:19:29;99022.00;;;13.80
19948;BMP180;10135;50.702;7.276;2023-04-25T07:21:30;99022.00;;;14.00
19948;BMP180;10135;50.702;7.276;2023-04-25T07:23:31;99030.00;;;14.10
19948;BMP180;10135;50.702;7.276;2023-04-25T07:25:32;99025.00;;;14.20
19948;BMP180;10135;50.702;7.276;2023-04-25T07:27:33;99030.00;;;14.20
19948;BMP180;10135;50.702;7.276;2023-04-25T07:29:33;99030.00;;;14.20
19948;BMP180;10135;50.702;7.276;2023-04-25T07:31:37;99032.00;;;14.30
19948;BMP180;10135;50.702;7.276;2023-04-25T07:33:38;99026.00;;;14.40
19948;BMP180;10135;50.702;7.276;2023-04-25T07:35:38;99023.00;;;14.40
19948;BMP180;10135;50.702;7.276;2023-04-25T07:37:39;99020.00;;;14.40
19948;BMP180;10135;50.702;7.276;2023-04-25T07:39:40;99028.00;;;14.40
19948;BMP180;10135;50.702;7.276;2023-04-25T07:41:41;99031.00;;;14.40
19948;BMP180;10135;50.702;7.276;2023-04-25T07:43:41;99035.00;;;14.50
19948;BMP180;10135;50.702;7.276;2023-04-25T07:45:43;99039.00;;;14.50
19948;BMP180;10135;50.702;7.276;2023-04-25T07:47:44;99040.00;;;14.50
19948;BMP180;10135;50.702;7.276;2023-04-25T07:49:45;99034.00;;;14.50
19948;BMP180;10135;50.702;7.276;2023-04-25T07:51:46;99031.00;;;14.50
19948;BMP180;10135;50.702;7.276;2023-04-25T07:53:47;99048.00;;;14.50
19948;BMP180;10135;50.702;7.276;2023-04-25T07:55:48;99050.00;;;14.40
19948;BMP180;10135;50.702;7.276;2023-04-25T07:57:48;99041.00;;;14.40
19948;BMP180;10135;50.702;7.276;2023-04-25T07:59:49;99044.00;;;14.30
19948;BMP180;10135;50.702;7.276;2023-04-25T08:01:50;99048.00;;;14.20
19948;BMP180;10135;50.702;7.276;2023-04-25T08:03:51;99054.00;;;14.20
19948;BMP180;10135;50.702;7.276;2023-04-25T08:05:51;99055.00;;;14.20
19948;BMP180;10135;50.702;7.276;2023-04-25T08:07:52;99063.00;;;14.10
19948;BMP180;10135;50.702;7.276;2023-04-25T08:09:53;99062.00;;;14.20
19948;BMP180;10135;50.702;7.276;2023-04-25T08:11:54;99065.00;;;14.30
19948;BMP180;10135;50.702;7.276;2023-04-25T08:13:55;99064.00;;;14.40
19948;BMP180;10135;50.702;7.276;2023-04-25T08:15:55;99075.00;;;14.40
19948;BMP180;10135;50.702;7.276;2023-04-25T08:17:56;99079.00;;;14.40
19948;BMP180;10135;50.702;7.276;2023-04-25T08:19:57;99083.00;;;14.40
19948;BMP180;10135;50.702;7.276;2023-04-25T08:21:57;99091.00;;;14.30
19948;BMP180;10135;50.702;7.276;2023-04-25T08:23:58;99089.00;;;14.30
19948;BMP180;10135;50.702;7.276;2023-04-25T08:25:59;99095.00;;;14.20
19948;BMP180;10135;50.702;7.276;2023-04-25T08:27:59;99097.00;;;14.20
19948;BMP180;10135;50.702;7.276;2023-04-25T08:30:03;99090.00;;;14.10
19948;BMP180;10135;50.702;7.276;2023-04-25T08:32:04;99097.00;;;14.10
19948;BMP180;10135;50.702;7.276;2023-04-25T08:34:05;99104.00;;;14.00
19948;BMP180;10135;50.702;7.276;2023-04-25T08:36:06;99107.00;;;14.00
19948;BMP180;10135;50.702;7.276;2023-04-25T08:38:07;99108.00;;;13.90
19948;BMP180;10135;50.702;7.276;2023-04-25T08:40:14;99112.00;;;13.90
19948;BMP180;10135;50.702;7.276;2023-04-25T08:42:15;99108.00;;;13.90
19948;BMP180;10135;50.702;7.276;2023-04-25T08:44:16;99120.00;;;13.90
19948;BMP180;10135;50.702;7.276;2023-04-25T08:46:20;99125.00;;;13.80
19948;BMP180;10135;50.702;7.276;2023-04-25T08:48:22;99131.00;;;13.80
19948;BMP180;10135;50.702;7.276;2023-04-25T08:50:25;99139.00;;;13.80
19948;BMP180;10135;50.702;7.276;2023-04-25T08:52:30;99145.00;;;13.80
19948;BMP180;10135;50.702;7.276;2023-04-25T08:54:33;99141.00;;;13.80
19948;BMP180;10135;50.702;7.276;2023-04-25T08:56:35;99143.00;;;13.80
19948;BMP180;10135;50.702;7.276;2023-04-25T08:58:36;99140.00;;;13.80
19948;BMP180;10135;50.702;7.276;2023-04-25T09:00:37;99149.00;;;13.80
19948;BMP180;10135;50.702;7.276;2023-04-25T09:02:39;99148.00;;;13.80
19948;BMP180;10135;50.702;7.276;2023-04-25T09:04:43;99147.00;;;13.80
19948;BMP180;10135;50.702;7.276;2023-04-25T09:06:44;99158.00;;;13.90
19948;BMP180;10135;50.702;7.276;2023-04-25T09:08:44;99156.00;;;13.90
19948;BMP180;10135;50.702;7.276;2023-04-25T09:10:45;99163.00;;;13.90
19948;BMP180;10135;50.702;7.276;2023-04-25T09:13:10;99162.00;;;14.00
19948;BMP180;10135;50.702;7.276;2023-04-25T09:15:13;99168.00;;;14.10
19948;BMP180;10135;50.702;7.276;2023-04-25T09:17:14;99159.00;;;14.10
19948;BMP180;10135;50.702;7.276;2023-04-25T09:19:22;99164.00;;;14.20
19948;BMP180;10135;50.702;7.276;2023-04-25T09:21:23;99156.00;;;14.30
19948;BMP180;10135;50.702;7.276;2023-04-25T09:23:24;99167.00;;;14.40
19948;BMP180;10135;50.702;7.276;2023-04-25T09:25:25;99166.00;;;14.50
19948;BMP180;10135;50.702;7.276;2023-04-25T09:27:25;99165.00;;;14.50
19948;BMP180;10135;50.702;7.276;2023-04-25T09:29:38;99164.00;;;14.60
19948;BMP180;10135;50.702;7.276;2023-04-25T09:31:39;99163.00;;;14.70
19948;BMP180;10135;50.702;7.276;2023-04-25T09:33:40;99173.00;;;14.80
19948;BMP180;10135;50.702;7.276;2023-04-25T09:35:43;99169.00;;;14.80
19948;BMP180;10135;50.702;7.276;2023-04-25T09:37:46;99187.00;;;14.80
19948;BMP180;10135;50.702;7.276;2023-04-25T09:39:49;99185.00;;;14.70
19948;BMP180;10135;50.702;7.276;2023-04-25T09:41:54;99184.00;;;14.70
19948;BMP180;10135;50.702;7.276;2023-04-25T09:43:57;99190.00;;;14.70
19948;BMP180;10135;50.702;7.276;2023-04-25T09:45:59;99188.00;;;14.60
19948;BMP180;10135;50.702;7.276;2023-04-25T09:48:04;99190.00;;;14.60
19948;BMP180;10135;50.702;7.276;2023-04-25T09:50:17;99199.00;;;14.50
19948;BMP180;10135;50.702;7.276;2023-04-25T09:52:22;99200.00;;;14.40
19948;BMP180;10135;50.702;7.276;2023-04-25T09:54:26;99201.00;;;14.30
19948;BMP180;10135;50.702;7.276;2023-04-25T09:56:31;99205.00;;;14.30
19948;BMP180;10135;50.702;7.276;2023-04-25T09:58:38;99207.00;;;14.20
19948;BMP180;10135;50.702;7.276;2023-04-25T10:00:41;99210.00;;;14.20
19948;BMP180;10135;50.702;7.276;2023-04-25T10:02:46;99212.00;;;14.10
19948;BMP180;10135;50.702;7.276;2023-04-25T10:04:54;99208.00;;;14.10
19948;BMP180;10135;50.702;7.276;2023-04-25T10:06:57;99214.00;;;14.10
19948;BMP180;10135;50.702;7.276;2023-04-25T10:08:58;99207.00;;;14.10
19948;BMP180;10135;50.702;7.276;2023-04-25T10:11:07;99214.00;;;14.10
19948;BMP180;10135;50.702;7.276;2023-04-25T10:13:08;99204.00;;;14.10
19948;BMP180;10135;50.702;7.276;2023-04-25T10:15:10;99217.00;;;14.20
19948;BMP180;10135;50.702;7.276;2023-04-25T10:17:11;99219.00;;;14.20
19948;BMP180;10135;50.702;7.276;2023-04-25T10:19:12;99222.00;;;14.20
19948;BMP180;10135;50.702;7.276;2023-04-25T10:21:15;99223.00;;;14.20
19948;BMP180;10135;50.702;7.276;2023-04-25T10:23:17;99228.00;;;14.20
19948;BMP180;10135;50.702;7.276;2023-04-25T10:25:18;99227.00;;;14.20
19948;BMP180;10135;50.702;7.276;2023-04-25T10:27:18;99227.00;;;14.20
19948;BMP180;10135;50.702;7.276;2023-04-25T10:29:24;99230.00;;;14.20
19948;BMP180;10135;50.702;7.276;2023-04-25T10:31:25;99232.00;;;14.20
19948;BMP180;10135;50.702;7.276;2023-04-25T10:33:44;99235.00;;;14.10
19948;BMP180;10135;50.702;7.276;2023-04-25T10:35:45;99238.00;;;14.20
19948;BMP180;10135;50.702;7.276;2023-04-25T10:38:13;99236.00;;;14.10
19948;BMP180;10135;50.702;7.276;2023-04-25T10:40:22;99242.00;;;14.20
19948;BMP180;10135;50.702;7.276;2023-04-25T10:42:23;99240.00;;;14.20
19948;BMP180;10135;50.702;7.276;2023-04-25T10:44:31;99242.00;;;14.20
19948;BMP180;10135;50.702;7.276;2023-04-25T10:46:33;99245.00;;;14.30
19948;BMP180;10135;50.702;7.276;2023-04-25T10:48:35;99245.00;;;14.30
19948;BMP180;10135;50.702;7.276;2023-04-25T10:50:39;99244.00;;;14.40
19948;BMP180;10135;50.702;7.276;2023-04-25T10:52:40;99248.00;;;14.40
19948;BMP180;10135;50.702;7.276;2023-04-25T10:55:03;99244.00;;;14.40
19948;BMP180;10135;50.702;7.276;2023-04-25T10:57:04;99253.00;;;14.50
19948;BMP180;10135;50.702;7.276;2023-04-25T10:59:06;99254.00;;;14.50
19948;BMP180;10135;50.702;7.276;2023-04-25T11:01:07;99256.00;;;14.50
19948;BMP180;10135;50.702;7.276;2023-04-25T11:03:08;99254.00;;;14.40
19948;BMP180;10135;50.702;7.276;2023-04-25T11:05:09;99254.00;;;14.40
19948;BMP180;10135;50.702;7.276;2023-04-25T11:07:52;99247.00;;;14.40
19948;BMP180;10135;50.702;7.276;2023-04-25T11:09:53;99247.00;;;14.40
19948;BMP180;10135;50.702;7.276;2023-04-25T11:11:55;99246.00;;;14.30
19948;BMP180;10135;50.702;7.276;2023-04-25T11:13:56;99260.00;;;14.20
19948;BMP180;10135;50.702;7.276;2023-04-25T11:15:57;99260.00;;;14.20
19948;BMP180;10135;50.702;7.276;2023-04-25T11:17:57;99255.00;;;14.10
19948;BMP180;10135;50.702;7.276;2023-04-25T11:19:59;99259.00;;;14.10
19948;BMP180;10135;50.702;7.276;2023-04-25T11:22:02;99256.00;;;14.10
19948;BMP180;10135;50.702;7.276;2023-04-25T11:24:03;99248.00;;;14.00
19948;BMP180;10135;50.702;7.276;2023-04-25T11:26:04;99242.00;;;14.00
19948;BMP180;10135;50.702;7.276;2023-04-25T11:28:05;99251.00;;;14.00
19948;BMP180;10135;50.702;7.276;2023-04-25T11:30:14;99252.00;;;14.00
19948;BMP180;10135;50.702;7.276;2023-04-25T11:32:18;99247.00;;;14.10
19948;BMP180;10135;50.702;7.276;2023-04-25T11:34:19;99249.00;;;14.10
19948;BMP180;10135;50.702;7.276;2023-04-25T11:36:20;99256.00;;;14.10
19948;BMP180;10135;50.702;7.276;2023-04-25T11:38:21;99269.00;;;14.10
19948;BMP180;10135;50.702;7.276;2023-04-25T11:40:22;99254.00;;;14.20
19948;BMP180;10135;50.702;7.276;2023-04-25T11:42:22;99257.00;;;14.20
19948;BMP180;10135;50.702;7.276;2023-04-25T11:44:23;99256.00;;;14.20
19948;BMP180;10135;50.702;7.276;2023-04-25T11:46:24;99252.00;;;14.30
19948;BMP180;10135;50.702;7.276;2023-04-25T11:48:24;99245.00;;;14.40
19948;BMP180;10135;50.702;7.276;2023-04-25T11:50:28;99255.00;;;14.50
19948;BMP180;10135;50.702;7.276;2023-04-25T11:52:45;99255.00;;;14.60
19948;BMP180;10135;50.702;7.276;2023-04-25T11:54:46;99261.00;;;14.80
19948;BMP180;10135;50.702;7.276;2023-04-25T11:56:47;99254.00;;;14.80
19948;BMP180;10135;50.702;7.276;2023-04-25T11:59:05;99262.00;;;14.90
19948;BMP180;10135;50.702;7.276;2023-04-25T12:01:06;99261.00;;;14.90
19948;BMP180;10135;50.702;7.276;2023-04-25T12:03:09;99258.00;;;14.90
19948;BMP180;10135;50.702;7.276;2023-04-25T12:05:12;99268.00;;;14.90
19948;BMP180;10135;50.702;7.276;2023-04-25T12:07:12;99271.00;;;14.80
19948;BMP180;10135;50.702;7.276;2023-04-25T12:09:17;99276.00;;;14.80
19948;BMP180;10135;50.702;7.276;2023-04-25T12:11:21;99276.00;;;14.70
19948;BMP180;10135;50.702;7.276;2023-04-25T12:13:25;99273.00;;;14.70
19948;BMP180;10135;50.702;7.276;2023-04-25T12:15:27;99278.00;;;14.60
19948;BMP180;10135;50.702;7.276;2023-04-25T12:17:28;99280.00;;;14.60
19948;BMP180;10135;50.702;7.276;2023-04-25T12:19:34;99275.00;;;14.50
19948;BMP180;10135;50.702;7.276;2023-04-25T12:21:35;99281.00;;;14.50
19948;BMP180;10135;50.702;7.276;2023-04-25T12:23:39;99283.00;;;14.50
19948;BMP180;10135;50.702;7.276;2023-04-25T12:25:42;99281.00;;;14.40
19948;BMP180;10135;50.702;7.276;2023-04-25T12:27:43;99282.00;;;14.40
19948;BMP180;10135;50.702;7.276;2023-04-25T12:29:53;99282.00;;;14.30
19948;BMP180;10135;50.702;7.276;2023-04-25T12:31:55;99279.00;;;14.30
19948;BMP180;10135;50.702;7.276;2023-04-25T12:33:56;99282.00;;;14.30
19948;BMP180;10135;50.702;7.276;2023-04-25T12:35:58;99285.00;;;14.40
19948;BMP180;10135;50.702;7.276;2023-04-25T12:37:59;99278.00;;;14.40
19948;BMP180;10135;50.702;7.276;2023-04-25T12:40:00;99287.00;;;14.40
19948;BMP180;10135;50.702;7.276;2023-04-25T12:42:00;99276.00;;;14.40
19948;BMP180;10135;50.702;7.276;2023-04-25T12:44:01;99282.00;;;14.40
19948;BMP180;10135;50.702;7.276;2023-04-25T12:46:02;99287.00;;;14.40
19948;BMP180;10135;50.702;7.276;2023-04-25T12:48:03;99289.00;;;14.40
19948;BMP180;10135;50.702;7.276;2023-04-25T12:50:04;99284.00;;;14.50
19948;BMP180;10135;50.702;7.276;2023-04-25T12:52:05;99282.00;;;14.50
19948;BMP180;10135;50.702;7.276;2023-04-25T12:54:06;99289.00;;;14.50
19948;BMP180;10135;50.702;7.276;2023-04-25T12:56:10;99289.00;;;14.60
19948;BMP180;10135;50.702;7.276;2023-04-25T12:58:11;99289.00;;;14.60
19948;BMP180;10135;50.702;7.276;2023-04-25T13:00:13;99291.00;;;14.60
19948;BMP180;10135;50.702;7.276;2023-04-25T13:02:15;99289.00;;;14.60
19948;BMP180;10135;50.702;7.276;2023-04-25T13:04:16;99282.00;;;14.70
19948;BMP180;10135;50.702;7.276;2023-04-25T13:06:18;99286.00;;;14.80
19948;BMP180;10135;50.702;7.276;2023-04-25T13:08:19;99281.00;;;14.90
19948;BMP180;10135;50.702;7.276;2023-04-25T13:10:19;99282.00;;;15.00
19948;BMP180;10135;50.702;7.276;2023-04-25T13:12:20;99281.00;;;15.10
19948;BMP180;10135;50.702;7.276;2023-04-25T13:14:21;99280.00;;;15.20
19948;BMP180;10135;50.702;7.276;2023-04-25T13:16:21;99278.00;;;15.30
19948;BMP180;10135;50.702;7.276;2023-04-25T13:18:22;99285.00;;;15.40
19948;BMP180;10135;50.702;7.276;2023-04-25T13:20:26;99277.00;;;15.50
19948;BMP180;10135;50.702;7.276;2023-04-25T13:22:27;99278.00;;;15.60
19948;BMP180;10135;50.702;7.276;2023-04-25T13:24:28;99278.00;;;15.70
19948;BMP180;10135;50.702;7.276;2023-04-25T13:26:28;99282.00;;;15.70
19948;BMP180;10135;50.702;7.276;2023-04-25T13:28:29;99282.00;;;15.70
19948;BMP180;10135;50.702;7.276;2023-04-25T13:30:30;99290.00;;;15.70
19948;BMP180;10135;50.702;7.276;2023-04-25T13:32:30;99281.00;;;15.70
19948;BMP180;10135;50.702;7.276;2023-04-25T13:34:31;99280.00;;;15.70
19948;BMP180;10135;50.702;7.276;2023-04-25T13:36:32;99278.00;;;15.80
19948;BMP180;10135;50.702;7.276;2023-04-25T13:38:32;99282.00;;;15.80
19948;BMP180;10135;50.702;7.276;2023-04-25T13:40:33;99282.00;;;15.80
19948;BMP180;10135;50.702;7.276;2023-04-25T13:42:34;99274.00;;;15.90
19948;BMP180;10135;50.702;7.276;2023-04-25T13:44:35;99278.00;;;15.90
19948;BMP180;10135;50.702;7.276;2023-04-25T13:46:36;99285.00;;;15.90
19948;BMP180;10135;50.702;7.276;2023-04-25T13:48:37;99283.00;;;15.80
19948;BMP180;10135;50.702;7.276;2023-04-25T13:50:38;99285.00;;;15.80
19948;BMP180;10135;50.702;7.276;2023-04-25T13:52:39;99297.00;;;15.70
19948;BMP180;10135;50.702;7.276;2023-04-25T13:54:40;99300.00;;;15.70
19948;BMP180;10135;50.702;7.276;2023-04-25T13:56:41;99318.00;;;15.60
19948;BMP180;10135;50.702;7.276;2023-04-25T13:58:42;99316.00;;;15.60
19948;BMP180;10135;50.702;7.276;2023-04-25T14:00:43;99319.00;;;15.50
19948;BMP180;10135;50.702;7.276;2023-04-25T14:02:46;99312.00;;;15.50
19948;BMP180;10135;50.702;7.276;2023-04-25T14:04:46;99318.00;;;15.40
19948;BMP180;10135;50.702;7.276;2023-04-25T14:06:47;99324.00;;;15.30
19948;BMP180;10135;50.702;7.276;2023-04-25T14:08:49;99319.00;;;15.30
19948;BMP180;10135;50.702;7.276;2023-04-25T14:10:50;99327.00;;;15.20
19948;BMP180;10135;50.702;7.276;2023-04-25T14:12:51;99325.00;;;15.20
19948;BMP180;10135;50.702;7.276;2023-04-25T14:14:52;99319.00;;;15.10
19948;BMP180;10135;50.702;7.276;2023-04-25T14:16:55;99318.00;;;15.10
19948;BMP180;10135;50.702;7.276;2023-04-25T14:18:58;99318.00;;;15.10
19948;BMP180;10135;50.702;7.276;2023-04-25T14:20:59;99314.00;;;15.10
19948;BMP180;10135;50.702;7.276;2023-04-25T14:23:00;99317.00;;;15.10
19948;BMP180;10135;50.702;7.276;2023-04-25T14:25:00;99322.00;;;15.10
19948;BMP180;10135;50.702;7.276;2023-04-25T14:27:01;99324.00;;;15.10
19948;BMP180;10135;50.702;7.276;2023-04-25T14:29:07;99321.00;;;15.20
19948;BMP180;10135;50.702;7.276;2023-04-25T14:31:09;99320.00;;;15.20
19948;BMP180;10135;50.702;7.276;2023-04-25T14:33:09;99322.00;;;15.20
19948;BMP180;10135;50.702;7.276;2023-04-25T14:35:10;99324.00;;;15.30
19948;BMP180;10135;50.702;7.276;2023-04-25T14:37:11;99325.00;;;15.30
19948;BMP180;10135;50.702;7.276;2023-04-25T14:39:12;99322.00;;;15.30
19948;BMP180;10135;50.702;7.276;2023-04-25T14:41:14;99325.00;;;15.30
19948;BMP180;10135;50.702;7.276;2023-04-25T14:43:15;99328.00;;;15.30
19948;BMP180;10135;50.702;7.276;2023-04-25T14:45:15;99326.00;;;15.30
19948;BMP180;10135;50.702;7.276;2023-04-25T14:47:17;99329.00;;;15.30
19948;BMP180;10135;50.702;7.276;2023-04-25T14:49:18;99328.00;;;15.30
19948;BMP180;10135;50.702;7.276;2023-04-25T14:51:18;99330.00;;;15.30
19948;BMP180;10135;50.702;7.276;2023-04-25T14:53:19;99326.00;;;15.30
19948;BMP180;10135;50.702;7.276;2023-04-25T14:55:20;99322.00;;;15.20
19948;BMP180;10135;50.702;7.276;2023-04-25T14:57:20;99325.00;;;15.20
19948;BMP180;10135;50.702;7.276;2023-04-25T14:59:21;99324.00;;;15.20
19948;BMP180;10135;50.702;7.276;2023-04-25T15:01:22;99325.00;;;15.20
19948;BMP180;10135;50.702;7.276;2023-04-25T15:03:23;99326.00;;;15.20
19948;BMP180;10135;50.702;7.276;2023-04-25T15:05:25;99326.00;;;15.20
19948;BMP180;10135;50.702;7.276;2023-04-25T15:07:25;99325.00;;;15.20
19948;BMP180;10135;50.702;7.276;2023-04-25T15:09:26;99324.00;;;15.20
19948;BMP180;10135;50.702;7.276;2023-04-25T15:11:27;99326.00;;;15.20
19948;BMP180;10135;50.702;7.276;2023-04-25T15:13:28;99322.00;;;15.30
19948;BMP180;10135;50.702;7.276;2023-04-25T15:15:29;99316.00;;;15.30
19948;BMP180;10135;50.702;7.276;2023-04-25T15:17:29;99326.00;;;15.40
19948;BMP180;10135;50.702;7.276;2023-04-25T15:19:31;99319.00;;;15.40
19948;BMP180;10135;50.702;7.276;2023-04-25T15:21:32;99319.00;;;15.50
19948;BMP180;10135;50.702;7.276;2023-04-25T15:23:33;99330.00;;;15.50
19948;BMP180;10135;50.702;7.276;2023-04-25T15:25:33;99330.00;;;15.50
19948;BMP180;10135;50.702;7.276;2023-04-25T15:27:35;99334.00;;;15.50
19948;BMP180;10135;50.702;7.276;2023-04-25T15:29:40;99327.00;;;15.60
19948;BMP180;10135;50.702;7.276;2023-04-25T15:31:40;99327.00;;;15.60
19948;BMP180;10135;50.702;7.276;2023-04-25T15:33:41;99326.00;;;15.50
19948;BMP180;10135;50.702;7.276;2023-04-25T15:35:42;99335.00;;;15.50
19948;BMP180;10135;50.702;7.276;2023-04-25T15:37:42;99329.00;;;15.50
19948;BMP180;10135;50.702;7.276;2023-04-25T15:39:44;99337.00;;;15.50
19948;BMP180;10135;50.702;7.276;2023-04-25T15:41:46;99335.00;;;15.40
19948;BMP180;10135;50.702;7.276;2023-04-25T15:43:47;99343.00;;;15.40
19948;BMP180;10135;50.702;7.276;2023-04-25T15:45:48;99336.00;;;15.40
19948;BMP180;10135;50.702;7.276;2023-04-25T15:47:49;99341.00;;;15.40
19948;BMP180;10135;50.702;7.276;2023-04-25T15:49:50;99346.00;;;15.40
19948;BMP180;10135;50.702;7.276;2023-04-25T15:51:51;99335.00;;;15.40
19948;BMP180;10135;50.702;7.276;2023-04-25T15:53:52;99335.00;;;15.40
19948;BMP180;10135;50.702;7.276;2023-04-25T15:55:52;99333.00;;;15.30
19948;BMP180;10135;50.702;7.276;2023-04-25T15:57:53;99339.00;;;15.30
19948;BMP180;10135;50.702;7.276;2023-04-25T15:59:54;99344.00;;;15.30
19948;BMP180;10135;50.702;7.276;2023-04-25T16:01:55;99337.00;;;15.30
19948;BMP180;10135;50.702;7.276;2023-04-25T16:03:57;99339.00;;;15.30
19948;BMP180;10135;50.702;7.276;2023-04-25T16:05:57;99343.00;;;15.30
19948;BMP180;10135;50.702;7.276;2023-04-25T16:07:58;99345.00;;;15.30
19948;BMP180;10135;50.702;7.276;2023-04-25T16:10:00;99350.00;;;15.30
19948;BMP180;10135;50.702;7.276;2023-04-25T16:12:01;99356.00;;;15.30
19948;BMP180;10135;50.702;7.276;2023-04-25T16:14:01;99366.00;;;15.30
19948;BMP180;10135;50.702;7.276;2023-04-25T16:16:02;99353.00;;;15.20
19948;BMP180;10135;50.702;7.276;2023-04-25T16:18:03;99360.00;;;15.20
19948;BMP180;10135;50.702;7.276;2023-04-25T16:20:04;99356.00;;;15.20
19948;BMP180;10135;50.702;7.276;2023-04-25T16:22:09;99356.00;;;15.20
19948;BMP180;10135;50.702;7.276;2023-04-25T16:24:12;99355.00;;;15.10
19948;BMP180;10135;50.702;7.276;2023-04-25T16:26:13;99358.00;;;15.10
19948;BMP180;10135;50.702;7.276;2023-04-25T16:28:14;99365.00;;;15.10
19948;BMP180;10135;50.702;7.276;2023-04-25T16:30:14;99355.00;;;15.10
19948;BMP180;10135;50.702;7.276;2023-04-25T16:32:15;99364.00;;;15.00
19948;BMP180;10135;50.702;7.276;2023-04-25T16:34:16;99369.00;;;15.00
19948;BMP180;10135;50.702;7.276;2023-04-25T16:36:17;99365.00;;;15.00
19948;BMP180;10135;50.702;7.276;2023-04-25T16:38:18;99367.00;;;14.90
19948;BMP180;10135;50.702;7.276;2023-04-25T16:40:19;99376.00;;;14.90
19948;BMP180;10135;50.702;7.276;2023-04-25T16:42:20;99373.00;;;14.80